Seagoville's Hourly Summary for Wednesday, May 9, 2018
Hour Temp
(f)
RH
(%)
Solar Rad.
(MJ/m2)
Rainfall
(in)
Wind
(mph)
5/9/2018 12:00 AM 72 62 0 0 6.44
5/9/2018 1:00 AM 71 58 0 0 6.74
5/9/2018 2:00 AM 71 57 0 0 7.87
5/9/2018 3:00 AM 69 57 0 0 7.04
5/9/2018 4:00 AM 68 59 0 0 8.88
5/9/2018 5:00 AM 67 63 0 0 8.88
5/9/2018 6:00 AM 65 68 0.03 0 6.41
5/9/2018 7:00 AM 65 76 0.39 0 5.05
5/9/2018 8:00 AM 67 74 0.84 0 4.84
5/9/2018 9:00 AM 71 62 1.71 0 6.4
5/9/2018 10:00 AM 74 55 2.33 0 5.94
5/9/2018 11:00 AM 77 49 2.59 0 7.17
5/9/2018 12:00 PM 79 45 2.66 0 8.56
5/9/2018 1:00 PM 81 43 2.85 0 9.8
5/9/2018 2:00 PM 82 42 2.7 0 11.25
5/9/2018 3:00 PM 83 39 2.44 0 11.07
5/9/2018 4:00 PM 84 37 1.91 0 10.68
5/9/2018 5:00 PM 83 38 1.55 0 9.82
5/9/2018 6:00 PM 82 39 0.91 0 8.13
5/9/2018 7:00 PM 80 40 0.27 0 5.57
5/9/2018 8:00 PM 75 49 0.01 0 1.62
5/9/2018 9:00 PM 71 64 0 0 1.48
5/9/2018 10:00 PM 69 71 0 0 2.77
5/9/2018 11:00 PM 71 59 0 0 5.56
Data Summary 74 54 23.19 0.00 7.00